createdAt,value
2022-11-23T00:01:34.150Z,37.20
2022-11-23T00:04:05.799Z,37.10
2022-11-23T00:06:33.671Z,37.20
2022-11-23T00:09:01.149Z,37.20
2022-11-23T00:11:29.206Z,37.20
2022-11-23T00:13:57.322Z,37.20
2022-11-23T00:16:28.625Z,37.20
2022-11-23T00:18:58.963Z,37.20
2022-11-23T00:21:29.024Z,37.20
2022-11-23T00:23:56.400Z,37.30
2022-11-23T00:26:23.432Z,37.20
2022-11-23T00:28:50.744Z,37.20
2022-11-23T00:31:20.218Z,37.30
2022-11-23T00:33:53.259Z,37.40
2022-11-23T00:36:21.627Z,37.30
2022-11-23T00:38:50.169Z,37.30
2022-11-23T00:41:26.656Z,37.20
2022-11-23T00:43:53.628Z,37.40
2022-11-23T00:46:27.011Z,37.30
2022-11-23T00:48:56.880Z,37.40
2022-11-23T00:51:29.567Z,37.40
2022-11-23T00:53:57.374Z,37.40
2022-11-23T00:56:24.496Z,37.40
2022-11-23T00:58:53.586Z,37.30
2022-11-23T01:01:24.640Z,37.40
2022-11-23T01:03:56.195Z,37.40
2022-11-23T01:06:27.245Z,37.30
2022-11-23T01:08:58.067Z,37.40
2022-11-23T01:11:30.045Z,37.30
2022-11-23T01:13:57.424Z,37.30
2022-11-23T01:16:31.946Z,37.30
2022-11-23T01:19:03.229Z,37.40
2022-11-23T01:21:33.152Z,37.30
2022-11-23T01:24:03.896Z,37.40
2022-11-23T01:26:30.953Z,37.40
2022-11-23T01:28:58.050Z,37.60
2022-11-23T01:31:26.568Z,37.30
2022-11-23T01:34:00.305Z,37.40
2022-11-23T01:36:30.989Z,37.60
2022-11-23T01:39:00.082Z,37.40
2022-11-23T01:41:31.858Z,37.40
2022-11-23T01:43:59.445Z,37.40
2022-11-23T01:46:26.612Z,38.00
2022-11-23T01:49:06.555Z,37.40
2022-11-23T01:51:45.746Z,37.50
2022-11-23T01:54:32.527Z,37.50
2022-11-23T01:57:10.857Z,37.50
2022-11-23T01:59:38.268Z,37.40
2022-11-23T02:02:05.715Z,37.40
2022-11-23T02:04:42.178Z,37.40
2022-11-23T02:07:10.791Z,37.50
2022-11-23T02:09:39.437Z,37.40
2022-11-23T02:12:13.825Z,37.40
2022-11-23T02:14:42.289Z,37.50
2022-11-23T02:17:12.127Z,37.40
2022-11-23T02:19:59.934Z,37.40
2022-11-23T02:23:00.647Z,37.50
2022-11-23T02:25:45.578Z,37.40
2022-11-23T02:28:26.136Z,37.50
2022-11-23T02:30:55.972Z,37.50
2022-11-23T02:33:23.249Z,37.40
2022-11-23T02:35:56.587Z,37.40
2022-11-23T02:38:30.013Z,37.40
2022-11-23T02:40:57.065Z,37.50
2022-11-23T02:43:24.613Z,37.40
2022-11-23T02:46:03.738Z,37.30
2022-11-23T02:48:30.713Z,37.60
2022-11-23T02:50:57.853Z,37.50
2022-11-23T02:53:24.802Z,37.50
2022-11-23T02:55:51.850Z,37.40
2022-11-23T02:58:18.912Z,37.50
2022-11-23T03:00:45.979Z,38.10
2022-11-23T03:03:12.947Z,37.40
2022-11-23T03:05:39.936Z,37.50
2022-11-23T03:08:07.115Z,37.40
2022-11-23T03:10:34.315Z,37.50
2022-11-23T03:13:01.208Z,37.40
2022-11-23T03:15:28.754Z,37.50
2022-11-23T03:17:57.967Z,37.50
2022-11-23T03:20:25.391Z,37.60
2022-11-23T03:22:53.523Z,37.60
2022-11-23T03:25:20.537Z,37.50
2022-11-23T03:27:48.724Z,37.40
2022-11-23T03:30:16.006Z,37.60
2022-11-23T03:32:42.940Z,38.10
2022-11-23T03:35:10.539Z,37.40
2022-11-23T03:37:40.485Z,37.50
2022-11-23T03:40:08.540Z,37.50
2022-11-23T03:42:41.131Z,37.50
2022-11-23T03:45:11.195Z,36.70
2022-11-23T03:47:38.126Z,37.60
2022-11-23T03:50:05.917Z,37.60
2022-11-23T03:52:32.827Z,37.50
2022-11-23T03:54:59.903Z,37.50
2022-11-23T03:57:26.874Z,37.60
2022-11-23T03:59:53.732Z,37.70
2022-11-23T04:02:20.724Z,37.60
2022-11-23T04:04:50.591Z,37.50
2022-11-23T04:07:17.871Z,37.50
2022-11-23T04:09:44.904Z,37.60
2022-11-23T04:12:11.897Z,37.60
2022-11-23T04:14:42.035Z,37.10
2022-11-23T04:17:11.235Z,37.60
2022-11-23T04:19:38.155Z,37.70
2022-11-23T04:22:05.129Z,37.50
2022-11-23T04:24:32.188Z,37.10
2022-11-23T04:26:59.163Z,37.50
2022-11-23T04:29:26.155Z,37.50
2022-11-23T04:31:53.594Z,37.50
2022-11-23T04:34:20.718Z,37.60
2022-11-23T04:36:50.585Z,37.60
2022-11-23T04:39:17.454Z,37.60
2022-11-23T04:41:44.413Z,37.60
2022-11-23T04:44:11.403Z,37.70
2022-11-23T04:46:38.419Z,38.30
2022-11-23T04:49:05.424Z,37.60
2022-11-23T04:51:32.604Z,37.60
2022-11-23T04:53:59.659Z,37.60
2022-11-23T04:56:26.604Z,37.60
2022-11-23T04:58:53.530Z,37.10
2022-11-23T05:01:20.560Z,37.70
2022-11-23T05:03:47.659Z,37.60
2022-11-23T05:06:14.844Z,37.60
2022-11-23T05:08:42.983Z,37.70
2022-11-23T05:11:10.233Z,37.70
2022-11-23T05:13:38.429Z,37.60
2022-11-23T05:16:05.585Z,37.60
2022-11-23T05:18:32.501Z,37.60
2022-11-23T05:20:59.514Z,37.90
2022-11-23T05:23:26.695Z,37.70
2022-11-23T05:25:53.861Z,37.70
2022-11-23T05:28:39.561Z,37.70
2022-11-23T05:31:08.525Z,38.40
2022-11-23T05:33:36.132Z,37.20
2022-11-23T05:36:03.255Z,37.70
2022-11-23T05:38:30.155Z,37.70
2022-11-23T05:40:57.290Z,37.70
2022-11-23T05:43:24.480Z,37.80
2022-11-23T05:45:51.534Z,37.80
2022-11-23T05:48:19.072Z,37.80
2022-11-23T05:50:46.040Z,37.70
2022-11-23T05:53:13.178Z,37.70
2022-11-23T05:55:40.124Z,37.80
2022-11-23T05:58:07.088Z,37.60
2022-11-23T06:00:35.947Z,37.60
2022-11-23T06:03:04.052Z,37.70
2022-11-23T06:05:31.743Z,37.90
2022-11-23T06:07:58.970Z,37.80
2022-11-23T06:10:26.095Z,37.30
2022-11-23T06:12:53.072Z,37.80
2022-11-23T06:15:20.414Z,37.70
2022-11-23T06:17:47.431Z,37.70
2022-11-23T06:20:14.658Z,37.70
2022-11-23T06:22:41.514Z,37.80
2022-11-23T06:25:09.714Z,37.80
2022-11-23T06:27:37.340Z,37.80
2022-11-23T06:30:05.514Z,37.70
2022-11-23T06:32:32.406Z,37.80
2022-11-23T06:35:01.170Z,37.80
2022-11-23T06:37:28.434Z,37.70
2022-11-23T06:39:55.452Z,37.80
2022-11-23T06:42:39.851Z,37.90
2022-11-23T06:45:09.214Z,36.10
2022-11-23T06:47:36.382Z,38.00
2022-11-23T06:50:04.643Z,38.10
2022-11-23T06:52:31.853Z,38.20
2022-11-23T06:54:58.993Z,37.90
2022-11-23T06:57:26.108Z,38.30
2022-11-23T06:59:53.578Z,38.30
2022-11-23T07:02:20.566Z,38.40
2022-11-23T07:04:47.992Z,38.30
2022-11-23T07:07:15.075Z,38.40
2022-11-23T07:09:42.189Z,39.00
2022-11-23T07:12:09.194Z,38.00
2022-11-23T07:14:36.110Z,38.20
2022-11-23T07:17:03.155Z,38.50
2022-11-23T07:19:30.192Z,38.50
2022-11-23T07:22:00.416Z,38.60
2022-11-23T07:24:27.339Z,38.80
2022-11-23T07:26:54.317Z,38.70
2022-11-23T07:29:21.414Z,38.70
2022-11-23T07:31:48.682Z,38.90
2022-11-23T07:34:15.953Z,38.80
2022-11-23T07:36:43.202Z,39.50
2022-11-23T07:39:11.275Z,38.90
2022-11-23T07:41:39.398Z,38.70
2022-11-23T07:44:06.570Z,38.80
2022-11-23T07:46:33.766Z,38.70
2022-11-23T07:49:02.487Z,38.20
2022-11-23T07:51:32.034Z,38.20
2022-11-23T07:53:59.350Z,37.40
2022-11-23T07:56:29.532Z,38.90
2022-11-23T07:58:57.107Z,38.10
2022-11-23T08:01:24.487Z,38.80
2022-11-23T08:03:51.868Z,38.20
2022-11-23T08:06:21.302Z,38.80
2022-11-23T08:08:48.246Z,36.40
2022-11-23T08:11:17.210Z,38.10
2022-11-23T08:13:45.030Z,38.20
2022-11-23T08:16:12.070Z,38.10
2022-11-23T08:18:39.367Z,38.30
2022-11-23T08:21:06.947Z,38.90
2022-11-23T08:23:34.316Z,38.60
2022-11-23T08:26:14.029Z,38.70
2022-11-23T08:28:41.218Z,38.60
2022-11-23T08:31:11.532Z,38.60
2022-11-23T08:33:39.972Z,38.60
2022-11-23T08:36:08.856Z,38.00
2022-11-23T08:38:36.255Z,38.50
2022-11-23T08:41:05.456Z,38.80
2022-11-23T08:43:32.849Z,38.70
2022-11-23T08:46:05.584Z,36.40
2022-11-23T08:48:35.042Z,38.60
2022-11-23T08:51:02.234Z,38.40
2022-11-23T08:53:29.139Z,38.50
2022-11-23T08:55:56.204Z,38.00
2022-11-23T08:58:23.083Z,38.40
2022-11-23T09:00:50.200Z,38.40
2022-11-23T09:03:17.198Z,38.20
2022-11-23T09:05:44.254Z,38.20
2022-11-23T09:08:11.461Z,38.40
2022-11-23T09:10:38.856Z,38.20
2022-11-23T09:13:05.900Z,38.20
2022-11-23T09:15:32.861Z,37.60
2022-11-23T09:17:59.935Z,38.00
2022-11-23T09:20:27.217Z,38.20
2022-11-23T09:23:01.382Z,38.10
2022-11-23T09:25:28.493Z,37.60
2022-11-23T09:28:04.697Z,38.00
2022-11-23T09:30:37.073Z,38.00
2022-11-23T09:33:15.861Z,38.10
2022-11-23T09:35:52.007Z,38.60
2022-11-23T09:38:19.094Z,38.50
2022-11-23T09:40:46.561Z,36.20
2022-11-23T09:43:54.285Z,38.90
2022-11-23T09:46:45.469Z,37.50
2022-11-23T09:49:22.906Z,37.80
2022-11-23T09:51:55.575Z,37.80
2022-11-23T09:54:46.867Z,37.90
2022-11-23T09:57:24.434Z,37.50
2022-11-23T10:00:04.214Z,37.80
2022-11-23T10:02:39.368Z,37.80
2022-11-23T10:05:08.226Z,37.80
2022-11-23T10:10:30.674Z,37.20
2022-11-23T10:13:24.302Z,37.70
2022-11-23T10:16:29.421Z,37.60
2022-11-23T10:19:17.606Z,37.50
2022-11-23T10:21:59.802Z,37.70
2022-11-23T10:24:37.763Z,37.50
2022-11-23T10:27:15.420Z,37.30
2022-11-23T10:29:44.095Z,37.60
2022-11-23T10:32:41.862Z,37.60
2022-11-23T10:35:32.576Z,37.30
2022-11-23T10:38:27.931Z,37.30
2022-11-23T10:41:08.584Z,37.20
2022-11-23T10:43:45.530Z,37.70
2022-11-23T10:46:34.365Z,37.70
2022-11-23T10:49:20.294Z,37.20
2022-11-23T10:52:05.613Z,37.30
2022-11-23T10:54:39.261Z,37.50
2022-11-23T10:57:44.285Z,37.50
2022-11-23T11:00:13.137Z,37.30
2022-11-23T11:02:52.048Z,37.50
2022-11-23T11:09:02.756Z,37.10
2022-11-23T11:11:38.773Z,37.00
2022-11-23T11:14:23.556Z,36.80
2022-11-23T11:16:58.432Z,36.90
2022-11-23T11:19:28.029Z,37.00
2022-11-23T11:21:56.257Z,37.20
2022-11-23T11:24:45.210Z,37.10
2022-11-23T11:27:23.919Z,36.70
2022-11-23T11:29:54.558Z,36.70
2022-11-23T11:32:42.721Z,36.90
2022-11-23T11:35:37.004Z,36.60
2022-11-23T11:39:07.804Z,37.20
2022-11-23T11:41:37.697Z,36.40
2022-11-23T11:44:16.088Z,36.80
2022-11-23T11:46:53.891Z,36.40
2022-11-23T11:49:35.429Z,35.90
2022-11-23T11:52:10.782Z,35.80
2022-11-23T11:54:44.718Z,36.30
2022-11-23T11:57:28.196Z,35.60
2022-11-23T11:59:58.320Z,35.40
2022-11-23T12:02:29.702Z,34.90
2022-11-23T12:05:23.643Z,35.40
2022-11-23T12:08:15.409Z,35.30
2022-11-23T12:10:58.090Z,35.20
2022-11-23T12:13:31.300Z,34.90
2022-11-23T12:16:28.838Z,34.70
2022-11-23T12:19:26.935Z,34.30
2022-11-23T12:22:07.668Z,34.50
2022-11-23T12:24:46.382Z,34.40
2022-11-23T12:27:15.901Z,34.30
2022-11-23T12:30:13.889Z,34.50
2022-11-23T12:33:06.570Z,34.30
2022-11-23T12:35:51.287Z,34.50
2022-11-23T12:38:29.900Z,34.40
2022-11-23T12:41:28.390Z,33.60
2022-11-23T12:44:16.847Z,34.50
2022-11-23T12:47:21.137Z,34.50
2022-11-23T12:50:10.361Z,34.70
2022-11-23T12:53:03.451Z,34.60
2022-11-23T12:55:54.680Z,34.70
2022-11-23T12:58:34.532Z,34.80
2022-11-23T13:01:12.732Z,34.40
2022-11-23T13:04:17.498Z,35.00
2022-11-23T13:10:04.467Z,35.10
2022-11-23T13:13:20.465Z,35.20
2022-11-23T13:16:23.305Z,35.20
2022-11-23T13:19:21.839Z,35.20
2022-11-23T13:21:49.394Z,35.30
2022-11-23T13:24:33.056Z,35.30
2022-11-23T13:27:15.562Z,35.30
2022-11-23T13:30:19.356Z,35.30
2022-11-23T13:32:56.669Z,35.30
2022-11-23T13:35:23.559Z,35.30
2022-11-23T13:37:56.621Z,35.20
2022-11-23T13:40:36.516Z,35.10
2022-11-23T13:43:31.776Z,35.20
2022-11-23T13:46:28.930Z,35.70
2022-11-23T13:49:01.804Z,35.40
2022-11-23T13:51:32.460Z,35.30
2022-11-23T13:54:16.604Z,35.50
2022-11-23T13:56:44.504Z,35.50
2022-11-23T13:59:23.642Z,35.50
2022-11-23T14:02:09.568Z,35.50
2022-11-23T14:04:41.961Z,35.40
2022-11-23T14:07:23.517Z,36.10
2022-11-23T14:10:14.127Z,35.40
2022-11-23T14:13:02.229Z,35.40
2022-11-23T14:15:41.086Z,35.40
2022-11-23T14:18:45.270Z,35.50
2022-11-23T14:21:33.368Z,35.40
2022-11-23T14:24:22.688Z,35.50
2022-11-23T14:27:39.418Z,34.70
2022-11-23T14:30:05.473Z,33.20
2022-11-23T14:32:56.610Z,32.40
2022-11-23T14:35:49.441Z,32.30
2022-11-23T14:38:56.554Z,32.50
2022-11-23T14:41:29.309Z,31.80
2022-11-23T14:44:00.480Z,31.90
2022-11-23T14:46:27.627Z,31.80
2022-11-23T14:49:06.672Z,31.50
2022-11-23T14:51:35.786Z,30.60
2022-11-23T14:54:11.593Z,30.10
2022-11-23T14:56:47.442Z,30.60
2022-11-23T14:59:17.069Z,31.10
2022-11-23T15:02:05.765Z,32.10
2022-11-23T15:04:41.023Z,32.40
2022-11-23T15:07:26.360Z,32.70
2022-11-23T15:10:28.159Z,32.90
2022-11-23T15:12:55.110Z,33.10
2022-11-23T15:15:30.189Z,32.70
2022-11-23T15:18:03.083Z,33.00
2022-11-23T15:20:42.271Z,33.70
2022-11-23T15:23:24.600Z,33.20
2022-11-23T15:25:55.821Z,33.90
2022-11-23T15:28:31.889Z,33.50
2022-11-23T15:30:59.135Z,34.20
2022-11-23T15:33:26.754Z,33.60
2022-11-23T15:35:55.048Z,33.70
2022-11-23T15:38:24.074Z,33.80
2022-11-23T15:40:52.551Z,33.80
2022-11-23T15:43:20.283Z,33.90
2022-11-23T15:45:47.300Z,34.30
2022-11-23T15:48:19.671Z,34.40
2022-11-23T15:51:03.477Z,34.00
2022-11-23T15:53:59.910Z,34.60
2022-11-23T15:56:37.107Z,34.60
2022-11-23T15:59:42.639Z,33.90
2022-11-23T16:02:37.010Z,34.00
2022-11-23T16:05:13.003Z,34.20
2022-11-23T16:07:59.010Z,34.00
2022-11-23T16:10:30.712Z,34.70
2022-11-23T16:13:04.274Z,34.10
2022-11-23T16:15:41.632Z,34.10
2022-11-23T16:18:17.689Z,34.80
2022-11-23T16:20:49.103Z,34.10
2022-11-23T16:23:25.724Z,34.70
2022-11-23T16:26:05.745Z,34.10
2022-11-23T16:28:39.918Z,34.90
2022-11-23T16:31:07.003Z,34.40
2022-11-23T16:33:34.209Z,34.70
2022-11-23T16:36:01.265Z,34.70
2022-11-23T16:38:28.235Z,34.70
2022-11-23T16:40:56.452Z,34.70
2022-11-23T16:43:23.502Z,34.70
2022-11-23T16:45:51.836Z,34.30
2022-11-23T16:48:27.493Z,35.00
2022-11-23T16:50:57.373Z,34.60
2022-11-23T16:53:30.135Z,34.60
2022-11-23T16:56:00.552Z,35.10
2022-11-23T16:58:35.125Z,35.20
2022-11-23T17:01:03.436Z,34.70
2022-11-23T17:03:30.686Z,35.30
2022-11-23T17:05:57.648Z,35.00
2022-11-23T17:08:24.640Z,35.70
2022-11-23T17:10:52.105Z,34.70
2022-11-23T17:13:29.050Z,34.80
2022-11-23T17:15:56.427Z,35.90
2022-11-23T17:18:23.426Z,34.70
2022-11-23T17:20:50.784Z,34.70
2022-11-23T17:23:18.250Z,34.70
2022-11-23T17:25:45.238Z,34.60
2022-11-23T17:28:17.165Z,35.00
2022-11-23T17:30:44.307Z,34.70
2022-11-23T17:33:12.365Z,34.70
2022-11-23T17:35:40.436Z,34.60
2022-11-23T17:38:17.437Z,35.20
2022-11-23T17:40:47.278Z,35.30
2022-11-23T17:45:44.447Z,34.60
2022-11-23T17:48:16.207Z,34.60
2022-11-23T17:50:45.320Z,35.20
2022-11-23T17:53:12.232Z,34.60
2022-11-23T17:58:07.057Z,34.70
2022-11-23T18:00:36.519Z,35.20
2022-11-23T18:03:03.843Z,35.30
2022-11-23T18:05:31.654Z,35.10
2022-11-23T18:07:59.087Z,34.80
2022-11-23T18:10:26.141Z,35.10
2022-11-23T18:12:53.169Z,35.20
2022-11-23T18:15:20.190Z,35.20
2022-11-23T18:17:50.339Z,34.80
2022-11-23T18:20:18.028Z,34.80
2022-11-23T18:22:45.133Z,34.80
2022-11-23T18:25:12.134Z,35.30
2022-11-23T18:27:39.273Z,35.30
2022-11-23T18:30:06.875Z,34.80
2022-11-23T18:32:33.858Z,35.30
2022-11-23T18:35:00.860Z,35.30
2022-11-23T18:37:27.800Z,36.00
2022-11-23T18:39:54.805Z,34.90
2022-11-23T18:42:21.779Z,34.90
2022-11-23T18:44:48.680Z,35.00
2022-11-23T18:47:15.767Z,35.00
2022-11-23T18:49:42.772Z,34.80
2022-11-23T18:52:13.720Z,35.00
2022-11-23T18:54:40.699Z,35.50
2022-11-23T18:57:08.077Z,35.00
2022-11-23T18:59:56.723Z,35.10
2022-11-23T19:02:22.303Z,34.90
2022-11-23T19:04:49.535Z,35.60
2022-11-23T19:07:17.381Z,36.10
2022-11-23T19:09:46.743Z,35.00
2022-11-23T19:12:14.095Z,35.10
2022-11-23T19:14:41.044Z,35.10
2022-11-23T19:17:08.210Z,35.10
2022-11-23T19:19:35.776Z,35.10
2022-11-23T19:22:03.189Z,35.10
2022-11-23T19:24:30.231Z,35.60
2022-11-23T19:26:57.126Z,35.50
2022-11-23T19:29:25.080Z,35.20
2022-11-23T19:31:54.563Z,35.20
2022-11-23T19:34:22.116Z,35.60
2022-11-23T19:36:49.236Z,35.20
2022-11-23T19:39:16.204Z,35.30
2022-11-23T19:41:43.468Z,35.20
2022-11-23T19:44:10.639Z,35.20
2022-11-23T19:46:37.666Z,35.20
2022-11-23T19:49:04.974Z,35.30
2022-11-23T19:51:31.961Z,35.30
2022-11-23T19:54:00.930Z,35.40
2022-11-23T19:56:29.823Z,35.80
2022-11-23T19:59:00.425Z,35.90
2022-11-23T20:01:32.183Z,35.60
2022-11-23T20:04:09.201Z,36.00
2022-11-23T20:06:39.754Z,35.90
2022-11-23T20:09:13.119Z,36.00
2022-11-23T20:11:40.980Z,36.00
2022-11-23T20:14:11.148Z,35.90
2022-11-23T20:16:38.405Z,36.00
2022-11-23T20:19:07.720Z,35.50
2022-11-23T20:21:36.688Z,35.60
2022-11-23T20:24:11.817Z,36.10
2022-11-23T20:26:39.704Z,36.10
2022-11-23T20:29:08.585Z,36.00
2022-11-23T20:31:36.443Z,35.60
2022-11-23T20:34:07.112Z,36.20
2022-11-23T20:36:38.122Z,36.00
2022-11-23T20:39:10.266Z,36.20
2022-11-23T20:44:14.198Z,35.70
2022-11-23T20:49:30.115Z,35.40
2022-11-23T20:51:58.233Z,35.60
2022-11-23T20:54:25.158Z,36.10
2022-11-23T20:56:52.237Z,35.70
2022-11-23T20:59:19.903Z,35.70
2022-11-23T21:01:47.128Z,35.80
2022-11-23T21:04:14.115Z,35.70
2022-11-23T21:06:41.074Z,35.70
2022-11-23T21:09:09.736Z,35.70
2022-11-23T21:11:55.871Z,36.30
2022-11-23T21:14:27.643Z,36.20
2022-11-23T21:17:00.178Z,36.30
2022-11-23T21:19:34.720Z,35.90
2022-11-23T21:22:11.138Z,36.10
2022-11-23T21:24:38.835Z,36.50
2022-11-23T21:27:08.504Z,35.90
2022-11-23T21:29:35.447Z,35.90
2022-11-23T21:32:02.561Z,35.90
2022-11-23T21:34:31.176Z,35.90
2022-11-23T21:36:59.135Z,36.70
2022-11-23T21:39:26.333Z,35.90
2022-11-23T21:41:54.465Z,36.30
2022-11-23T21:44:22.939Z,36.50
2022-11-23T21:46:50.346Z,36.00
2022-11-23T21:49:17.470Z,36.00
2022-11-23T21:51:45.705Z,36.00
2022-11-23T21:54:16.624Z,36.50
2022-11-23T21:56:46.063Z,36.00
2022-11-23T21:59:13.539Z,36.10
2022-11-23T22:01:42.183Z,36.00
2022-11-23T22:04:12.603Z,36.00
2022-11-23T22:06:42.260Z,36.60
2022-11-23T22:09:11.441Z,36.10
2022-11-23T22:11:41.619Z,36.60
2022-11-23T22:14:12.199Z,36.10
2022-11-23T22:16:49.761Z,35.90
2022-11-23T22:19:18.302Z,36.80
2022-11-23T22:21:46.756Z,36.70
2022-11-23T22:24:17.445Z,36.70
2022-11-23T22:26:45.748Z,36.70
2022-11-23T22:29:13.003Z,36.70
2022-11-23T22:31:40.515Z,36.00
2022-11-23T22:34:11.544Z,36.20
2022-11-23T22:36:38.519Z,36.30
2022-11-23T22:39:07.208Z,36.20
2022-11-23T22:41:37.067Z,36.30
2022-11-23T22:44:10.049Z,36.70
2022-11-23T22:46:39.039Z,36.30
2022-11-23T22:49:06.320Z,36.30
2022-11-23T22:51:33.620Z,36.30
2022-11-23T22:54:01.533Z,36.70
2022-11-23T22:56:30.694Z,36.80
2022-11-23T22:58:58.237Z,36.80
2022-11-23T23:01:29.468Z,36.60
2022-11-23T23:04:00.561Z,36.30
2022-11-23T23:06:33.596Z,36.20
2022-11-23T23:09:03.641Z,36.40
2022-11-23T23:11:32.948Z,36.40
2022-11-23T23:14:00.692Z,36.40
2022-11-23T23:16:27.764Z,36.40
2022-11-23T23:18:57.097Z,36.40
2022-11-23T23:23:55.412Z,36.50
2022-11-23T23:26:25.602Z,36.40
2022-11-23T23:28:57.854Z,36.90
2022-11-23T23:31:26.310Z,37.00
2022-11-23T23:33:57.108Z,36.90
2022-11-23T23:36:24.617Z,36.90
2022-11-23T23:38:52.579Z,36.90
2022-11-23T23:41:20.072Z,37.00
2022-11-23T23:46:17.613Z,36.50
2022-11-23T23:48:45.511Z,36.50
2022-11-23T23:51:16.973Z,36.50
2022-11-23T23:53:44.757Z,36.60
2022-11-23T23:56:17.762Z,36.50
2022-11-23T23:58:46.508Z,37.20
